createdAt,value
2022-12-28T00:01:21.561Z,3.70
2022-12-28T00:03:48.610Z,4.03
2022-12-28T00:06:18.152Z,3.93
2022-12-28T00:08:45.326Z,3.33
2022-12-28T00:11:26.347Z,3.80
2022-12-28T00:13:56.640Z,4.03
2022-12-28T00:16:29.782Z,3.30
2022-12-28T00:18:58.411Z,3.13
2022-12-28T00:21:25.878Z,3.53
2022-12-28T00:23:53.823Z,5.03
2022-12-28T00:26:25.176Z,2.93
2022-12-28T00:28:54.365Z,2.67
2022-12-28T00:31:22.409Z,2.60
2022-12-28T00:33:49.251Z,3.27
2022-12-28T00:36:16.499Z,2.17
2022-12-28T00:38:43.738Z,2.70
2022-12-28T00:41:11.217Z,3.00
2022-12-28T00:43:38.204Z,2.43
2022-12-28T00:46:05.121Z,2.53
2022-12-28T00:48:32.362Z,2.40
2022-12-28T00:51:04.218Z,2.33
2022-12-28T00:53:31.205Z,2.40
2022-12-28T00:56:12.767Z,2.30
2022-12-28T00:58:40.235Z,2.13
2022-12-28T01:01:13.024Z,3.50
2022-12-28T01:03:39.785Z,2.23
2022-12-28T01:06:07.510Z,2.57
2022-12-28T01:08:36.249Z,2.33
2022-12-28T01:11:17.232Z,2.30
2022-12-28T01:13:44.084Z,2.50
2022-12-28T01:16:15.805Z,2.27
2022-12-28T01:18:48.392Z,2.40
2022-12-28T01:21:17.583Z,1.70
2022-12-28T01:23:45.905Z,2.43
2022-12-28T01:26:13.450Z,1.83
2022-12-28T01:28:41.985Z,2.60
2022-12-28T01:31:11.515Z,2.10
2022-12-28T01:33:39.152Z,1.70
2022-12-28T01:36:16.808Z,2.10
2022-12-28T01:38:44.694Z,2.00
2022-12-28T01:41:14.429Z,1.60
2022-12-28T01:43:47.866Z,2.03
2022-12-28T01:46:17.464Z,3.07
2022-12-28T01:48:52.977Z,2.70
2022-12-28T01:51:23.529Z,1.83
2022-12-28T01:54:07.359Z,1.93
2022-12-28T01:56:34.051Z,1.83
2022-12-28T01:59:00.775Z,1.90
2022-12-28T02:01:28.135Z,2.00
2022-12-28T02:03:55.002Z,1.83
2022-12-28T02:06:21.878Z,1.87
2022-12-28T02:08:54.288Z,1.70
2022-12-28T02:11:21.309Z,1.80
2022-12-28T02:13:49.455Z,1.67
2022-12-28T02:16:16.314Z,2.03
2022-12-28T02:18:44.358Z,1.70
2022-12-28T02:21:33.119Z,1.33
2022-12-28T02:24:38.129Z,1.80
2022-12-28T02:27:14.282Z,1.60
2022-12-28T02:29:47.738Z,1.43
2022-12-28T02:32:46.933Z,1.40
2022-12-28T02:35:30.356Z,1.57
2022-12-28T02:38:03.482Z,1.40
2022-12-28T02:40:40.739Z,1.43
2022-12-28T02:43:07.556Z,1.53
2022-12-28T02:46:04.651Z,1.60
2022-12-28T02:49:01.404Z,1.50
2022-12-28T02:52:03.062Z,1.50
2022-12-28T02:54:48.280Z,1.43
2022-12-28T02:57:35.131Z,1.50
2022-12-28T03:00:08.168Z,1.50
2022-12-28T03:02:41.326Z,1.50
2022-12-28T03:05:11.668Z,1.20
2022-12-28T03:08:20.017Z,1.50
2022-12-28T03:10:57.067Z,1.83
2022-12-28T03:13:44.821Z,1.07
2022-12-28T03:16:22.776Z,1.57
2022-12-28T03:19:14.164Z,1.50
2022-12-28T03:22:00.558Z,1.00
2022-12-28T03:24:48.289Z,1.30
2022-12-28T03:27:35.473Z,1.23
2022-12-28T03:30:29.953Z,1.00
2022-12-28T03:32:57.226Z,0.90
2022-12-28T03:35:28.232Z,1.30
2022-12-28T03:38:01.578Z,1.60
2022-12-28T03:40:32.400Z,1.00
2022-12-28T03:43:22.722Z,0.90
2022-12-28T03:45:56.232Z,0.87
2022-12-28T03:48:23.899Z,0.90
2022-12-28T03:50:51.601Z,0.90
2022-12-28T03:53:21.445Z,1.00
2022-12-28T03:55:48.089Z,0.80
2022-12-28T03:58:14.808Z,0.90
2022-12-28T04:00:41.526Z,1.10
2022-12-28T04:03:08.492Z,0.70
2022-12-28T04:05:35.363Z,1.13
2022-12-28T04:08:02.163Z,1.03
2022-12-28T04:10:30.386Z,0.80
2022-12-28T04:12:57.065Z,1.20
2022-12-28T04:15:23.821Z,0.73
2022-12-28T04:17:50.524Z,0.93
2022-12-28T04:20:17.448Z,1.20
2022-12-28T04:22:44.644Z,1.00
2022-12-28T04:25:11.365Z,1.17
2022-12-28T04:27:38.019Z,1.00
2022-12-28T04:30:05.621Z,1.13
2022-12-28T04:32:32.409Z,0.90
2022-12-28T04:34:59.109Z,1.20
2022-12-28T04:37:25.837Z,1.20
2022-12-28T04:39:56.023Z,1.20
2022-12-28T04:42:25.122Z,1.17
2022-12-28T04:44:51.977Z,1.00
2022-12-28T04:47:18.709Z,1.17
2022-12-28T04:49:45.433Z,1.17
2022-12-28T04:52:12.552Z,0.87
2022-12-28T04:54:39.266Z,1.00
2022-12-28T04:57:06.783Z,0.97
2022-12-28T04:59:33.463Z,1.20
2022-12-28T05:02:00.369Z,1.00
2022-12-28T05:04:27.157Z,0.90
2022-12-28T05:06:53.878Z,2.30
2022-12-28T05:09:20.630Z,1.10
2022-12-28T05:11:47.329Z,0.80
2022-12-28T05:14:14.246Z,1.10
2022-12-28T05:16:41.215Z,1.03
2022-12-28T05:19:08.501Z,0.90
2022-12-28T05:21:35.196Z,0.90
2022-12-28T05:24:01.942Z,0.90
2022-12-28T05:26:29.907Z,0.90
2022-12-28T05:28:57.295Z,0.80
2022-12-28T05:31:24.803Z,1.70
2022-12-28T05:33:52.184Z,1.13
2022-12-28T05:36:22.080Z,1.13
2022-12-28T05:38:49.031Z,0.70
2022-12-28T05:41:21.443Z,0.80
2022-12-28T05:43:48.633Z,0.70
2022-12-28T05:46:19.420Z,0.80
2022-12-28T05:48:46.837Z,1.10
2022-12-28T05:51:16.297Z,0.70
2022-12-28T05:53:43.491Z,0.70
2022-12-28T05:56:15.136Z,0.80
2022-12-28T05:58:46.413Z,1.47
2022-12-28T06:01:15.525Z,0.80
2022-12-28T06:03:42.962Z,0.60
2022-12-28T06:06:15.104Z,1.30
2022-12-28T06:08:43.222Z,1.40
2022-12-28T06:11:12.556Z,1.27
2022-12-28T06:13:39.681Z,0.87
2022-12-28T06:16:12.772Z,0.93
2022-12-28T06:18:39.591Z,1.23
2022-12-28T06:21:17.493Z,0.90
2022-12-28T06:23:44.630Z,0.77
2022-12-28T06:26:13.763Z,0.70
2022-12-28T06:28:41.180Z,0.80
2022-12-28T06:31:13.690Z,0.60
2022-12-28T06:33:40.476Z,0.97
2022-12-28T06:36:19.699Z,0.70
2022-12-28T06:38:47.769Z,0.60
2022-12-28T06:41:15.253Z,0.80
2022-12-28T06:43:43.218Z,0.50
2022-12-28T06:46:11.342Z,0.73
2022-12-28T06:48:38.444Z,0.77
2022-12-28T06:51:16.517Z,0.70
2022-12-28T06:53:45.304Z,0.77
2022-12-28T06:56:20.159Z,0.70
2022-12-28T06:58:48.308Z,0.70
2022-12-28T07:01:18.441Z,0.80
2022-12-28T07:03:46.769Z,0.70
2022-12-28T07:06:16.113Z,1.07
2022-12-28T07:08:43.628Z,0.77
2022-12-28T07:11:19.876Z,0.57
2022-12-28T07:13:47.373Z,1.27
2022-12-28T07:16:22.063Z,1.27
2022-12-28T07:18:52.639Z,0.80
2022-12-28T07:21:24.816Z,1.53
2022-12-28T07:23:53.130Z,1.43
2022-12-28T07:26:22.545Z,1.80
2022-12-28T07:28:51.269Z,1.17
2022-12-28T07:31:20.514Z,0.83
2022-12-28T07:33:48.062Z,0.70
2022-12-28T07:36:16.985Z,1.10
2022-12-28T07:38:44.357Z,0.90
2022-12-28T07:41:17.455Z,0.70
2022-12-28T07:43:45.383Z,0.80
2022-12-28T07:46:27.202Z,0.90
2022-12-28T07:48:54.778Z,1.10
2022-12-28T07:51:25.653Z,1.00
2022-12-28T07:53:52.896Z,1.53
2022-12-28T07:56:20.290Z,0.90
2022-12-28T07:58:55.158Z,1.47
2022-12-28T08:01:23.833Z,1.03
2022-12-28T08:03:56.817Z,0.97
2022-12-28T08:06:24.923Z,1.13
2022-12-28T08:08:58.831Z,1.10
2022-12-28T08:11:31.793Z,0.93
2022-12-28T08:13:59.627Z,0.80
2022-12-28T08:16:28.046Z,1.00
2022-12-28T08:18:55.390Z,0.90
2022-12-28T08:21:26.431Z,0.93
2022-12-28T08:23:53.483Z,0.90
2022-12-28T08:26:35.062Z,0.90
2022-12-28T08:29:03.964Z,1.00
2022-12-28T08:31:36.030Z,1.00
2022-12-28T08:34:04.507Z,0.70
2022-12-28T08:36:31.581Z,0.90
2022-12-28T08:38:58.841Z,1.10
2022-12-28T08:41:28.677Z,1.60
2022-12-28T08:43:57.561Z,1.33
2022-12-28T08:46:30.100Z,1.10
2022-12-28T08:48:58.201Z,1.30
2022-12-28T08:51:46.740Z,0.80
2022-12-28T08:54:16.323Z,0.90
2022-12-28T08:56:45.273Z,1.00
2022-12-28T08:59:18.102Z,0.90
2022-12-28T09:01:45.924Z,0.70
2022-12-28T09:04:20.430Z,1.00
2022-12-28T09:06:48.024Z,0.90
2022-12-28T09:09:16.532Z,1.00
2022-12-28T09:11:43.696Z,0.93
2022-12-28T09:14:17.160Z,1.27
2022-12-28T09:16:49.409Z,1.17
2022-12-28T09:19:16.333Z,0.80
2022-12-28T09:21:45.274Z,1.47
2022-12-28T09:24:13.356Z,0.80
2022-12-28T09:26:40.425Z,1.20
2022-12-28T09:29:10.647Z,0.80
2022-12-28T09:31:37.590Z,0.80
2022-12-28T09:36:58.252Z,0.90
2022-12-28T09:39:25.238Z,0.80
2022-12-28T09:42:10.983Z,0.80
2022-12-28T09:45:04.385Z,0.90
2022-12-28T09:47:35.527Z,0.90
2022-12-28T09:50:07.895Z,1.23
2022-12-28T09:53:03.161Z,0.80
2022-12-28T09:55:30.739Z,0.80
2022-12-28T09:58:00.376Z,1.70
2022-12-28T10:00:47.170Z,0.90
2022-12-28T10:03:19.507Z,0.83
2022-12-28T10:05:46.626Z,0.80
2022-12-28T10:08:16.118Z,0.93
2022-12-28T10:10:48.392Z,0.80
2022-12-28T10:13:53.518Z,1.20
2022-12-28T10:16:20.012Z,0.90
2022-12-28T10:18:48.376Z,0.90
2022-12-28T10:21:19.820Z,0.87
2022-12-28T10:26:36.269Z,1.47
2022-12-28T10:29:10.898Z,1.00
2022-12-28T10:31:40.215Z,1.10
2022-12-28T10:34:21.041Z,0.90
2022-12-28T10:36:48.964Z,0.90
2022-12-28T10:39:21.050Z,1.37
2022-12-28T10:41:48.825Z,1.07
2022-12-28T10:44:40.342Z,0.90
2022-12-28T10:47:18.315Z,0.93
2022-12-28T10:52:40.055Z,1.03
2022-12-28T10:55:36.474Z,1.93
2022-12-28T10:58:36.040Z,0.87
2022-12-28T11:01:07.651Z,0.70
2022-12-28T11:03:37.021Z,2.20
2022-12-28T11:06:26.581Z,0.70
2022-12-28T11:09:13.052Z,0.77
2022-12-28T11:11:40.733Z,0.97
2022-12-28T11:14:15.793Z,0.80
2022-12-28T11:16:43.087Z,0.80
2022-12-28T11:19:11.874Z,0.70
2022-12-28T11:21:43.191Z,0.70
2022-12-28T11:24:17.696Z,0.60
2022-12-28T11:26:47.027Z,0.93
2022-12-28T11:29:15.380Z,0.70
2022-12-28T11:31:54.752Z,0.63
2022-12-28T11:34:24.952Z,0.70
2022-12-28T11:36:52.008Z,0.77
2022-12-28T11:39:27.891Z,0.80
2022-12-28T11:44:45.483Z,0.70
2022-12-28T11:47:18.137Z,0.70
2022-12-28T11:49:46.466Z,0.70
2022-12-28T11:52:24.104Z,0.83
2022-12-28T11:54:56.071Z,0.90
2022-12-28T11:57:40.640Z,0.90
2022-12-28T12:00:22.861Z,1.33
2022-12-28T12:03:00.820Z,0.60
2022-12-28T12:05:37.155Z,0.83
2022-12-28T12:08:14.081Z,0.70
2022-12-28T12:10:42.530Z,0.70
2022-12-28T12:13:27.762Z,0.70
2022-12-28T12:16:18.820Z,0.60
2022-12-28T12:18:54.575Z,0.70
2022-12-28T12:21:33.010Z,0.60
2022-12-28T12:24:28.001Z,1.97
2022-12-28T12:27:08.576Z,0.70
2022-12-28T12:29:42.344Z,0.80
2022-12-28T12:32:25.744Z,0.70
2022-12-28T12:34:56.552Z,0.60
2022-12-28T12:37:44.928Z,0.70
2022-12-28T12:40:37.991Z,0.73
2022-12-28T12:43:30.495Z,1.17
2022-12-28T12:46:37.262Z,0.60
2022-12-28T12:49:35.022Z,0.60
2022-12-28T12:52:20.575Z,0.80
2022-12-28T12:55:25.564Z,1.10
2022-12-28T12:58:04.108Z,2.23
2022-12-28T13:01:03.389Z,0.83
2022-12-28T13:03:47.623Z,0.77
2022-12-28T13:06:17.380Z,0.50
2022-12-28T13:08:50.235Z,0.70
2022-12-28T13:11:18.179Z,0.80
2022-12-28T13:13:47.574Z,0.67
2022-12-28T13:16:23.471Z,1.20
2022-12-28T13:19:16.836Z,0.70
2022-12-28T13:21:49.099Z,0.90
2022-12-28T13:24:39.279Z,0.80
2022-12-28T13:27:19.317Z,1.17
2022-12-28T13:29:52.150Z,0.87
2022-12-28T13:32:34.198Z,1.10
2022-12-28T13:35:17.452Z,0.80
2022-12-28T13:37:44.304Z,1.00
2022-12-28T13:40:12.697Z,1.30
2022-12-28T13:42:57.467Z,1.40
2022-12-28T13:45:24.987Z,1.80
2022-12-28T13:47:52.920Z,0.90
2022-12-28T13:50:24.280Z,0.90
2022-12-28T13:52:56.448Z,0.80
2022-12-28T13:55:27.523Z,1.80
2022-12-28T13:57:59.884Z,1.07
2022-12-28T14:00:27.795Z,0.80
2022-12-28T14:02:55.474Z,0.93
2022-12-28T14:05:25.174Z,0.90
2022-12-28T14:07:53.325Z,1.00
2022-12-28T14:10:20.296Z,1.00
2022-12-28T14:12:48.087Z,0.90
2022-12-28T14:15:16.159Z,1.60
2022-12-28T14:17:45.269Z,1.23
2022-12-28T14:20:12.170Z,0.90
2022-12-28T14:22:40.031Z,0.90
2022-12-28T14:25:12.476Z,1.63
2022-12-28T14:28:03.730Z,0.80
2022-12-28T14:30:33.956Z,0.90
2022-12-28T14:33:19.373Z,2.20
2022-12-28T14:36:05.946Z,1.23
2022-12-28T14:38:45.688Z,0.80
2022-12-28T14:41:23.297Z,1.17
2022-12-28T14:43:55.127Z,0.90
2022-12-28T14:46:28.280Z,1.30
2022-12-28T14:48:55.097Z,1.20
2022-12-28T14:51:24.792Z,2.00
2022-12-28T14:54:15.728Z,1.73
2022-12-28T14:56:48.630Z,1.50
2022-12-28T14:59:19.983Z,1.30
2022-12-28T15:01:47.463Z,1.67
2022-12-28T15:04:45.659Z,1.97
2022-12-28T15:07:12.617Z,1.67
2022-12-28T15:09:40.463Z,1.90
2022-12-28T15:12:20.388Z,1.97
2022-12-28T15:14:48.818Z,2.13
2022-12-28T15:17:16.618Z,2.10
2022-12-28T15:19:45.168Z,2.47
2022-12-28T15:22:12.838Z,1.80
2022-12-28T15:24:41.435Z,3.23
2022-12-28T15:27:08.314Z,2.57
2022-12-28T15:32:21.979Z,1.80
2022-12-28T15:34:49.153Z,2.87
2022-12-28T15:37:16.072Z,2.53
2022-12-28T15:39:43.109Z,2.00
2022-12-28T15:42:09.901Z,1.70
2022-12-28T15:44:36.774Z,1.70
2022-12-28T15:47:03.491Z,2.03
2022-12-28T15:49:30.338Z,2.10
2022-12-28T15:51:58.095Z,2.73
2022-12-28T15:54:24.831Z,1.53
2022-12-28T15:56:53.196Z,1.90
2022-12-28T15:59:19.941Z,1.70
2022-12-28T16:01:47.737Z,1.83
2022-12-28T16:04:15.200Z,1.70
2022-12-28T16:06:44.701Z,1.70
2022-12-28T16:09:12.692Z,1.97
2022-12-28T16:11:39.602Z,1.90
2022-12-28T16:14:09.113Z,1.97
2022-12-28T16:16:38.461Z,1.87
2022-12-28T16:19:06.831Z,2.00
2022-12-28T16:21:33.571Z,2.30
2022-12-28T16:24:00.806Z,2.07
2022-12-28T16:26:27.845Z,1.93
2022-12-28T16:28:54.700Z,2.07
2022-12-28T16:31:26.461Z,2.07
2022-12-28T16:34:01.225Z,1.77
2022-12-28T16:36:28.316Z,6.10
2022-12-28T16:38:55.548Z,6.20
2022-12-28T16:41:22.343Z,5.30
2022-12-28T16:43:49.325Z,4.43
2022-12-28T16:46:16.663Z,4.40
2022-12-28T16:48:43.803Z,4.03
2022-12-28T16:51:11.831Z,3.10
2022-12-28T16:53:38.591Z,2.53
2022-12-28T16:56:06.201Z,4.00
2022-12-28T16:58:33.449Z,3.10
2022-12-28T17:01:06.984Z,3.40
2022-12-28T17:03:34.615Z,3.20
2022-12-28T17:06:01.519Z,3.10
2022-12-28T17:08:28.334Z,3.50
2022-12-28T17:10:55.156Z,3.30
2022-12-28T17:13:22.084Z,3.10
2022-12-28T17:15:48.945Z,3.17
2022-12-28T17:18:15.717Z,4.80
2022-12-28T17:20:44.905Z,3.40
2022-12-28T17:23:11.922Z,3.77
2022-12-28T17:25:38.749Z,3.70
2022-12-28T17:28:05.812Z,2.73
2022-12-28T17:30:34.581Z,3.00
2022-12-28T17:33:01.303Z,3.30
2022-12-28T17:35:28.119Z,3.13
2022-12-28T17:37:55.009Z,3.40
2022-12-28T17:40:21.756Z,3.33
2022-12-28T17:42:48.706Z,4.07
2022-12-28T17:45:15.507Z,3.00
2022-12-28T17:47:43.191Z,2.93
2022-12-28T17:50:10.113Z,2.97
2022-12-28T17:52:36.804Z,2.90
2022-12-28T17:55:04.082Z,3.03
2022-12-28T17:57:35.344Z,3.20
2022-12-28T18:00:06.680Z,2.70
2022-12-28T18:02:33.739Z,2.87
2022-12-28T18:05:01.221Z,3.13
2022-12-28T18:07:27.938Z,2.90
2022-12-28T18:09:54.862Z,2.70
2022-12-28T18:12:21.569Z,2.87
2022-12-28T18:14:48.638Z,2.53
2022-12-28T18:17:19.257Z,2.67
2022-12-28T18:19:46.165Z,2.67
2022-12-28T18:22:12.931Z,2.70
2022-12-28T18:24:39.732Z,2.70
2022-12-28T18:27:06.495Z,2.77
2022-12-28T18:29:33.235Z,2.50
2022-12-28T18:32:00.121Z,2.80
2022-12-28T18:34:28.028Z,2.93
2022-12-28T18:36:55.405Z,2.50
2022-12-28T18:39:22.148Z,2.87
2022-12-28T18:41:49.021Z,3.03
2022-12-28T18:44:15.708Z,2.60
2022-12-28T18:46:42.682Z,2.60
2022-12-28T18:49:09.761Z,2.87
2022-12-28T18:51:37.097Z,2.73
2022-12-28T18:54:03.883Z,2.57
2022-12-28T18:56:30.707Z,2.80
2022-12-28T18:58:58.588Z,2.50
2022-12-28T19:04:16.338Z,2.40
2022-12-28T19:06:44.118Z,2.57
2022-12-28T19:09:11.916Z,2.60
2022-12-28T19:11:39.806Z,2.50
2022-12-28T19:14:08.876Z,2.33
2022-12-28T19:16:35.742Z,3.43
2022-12-28T19:19:02.755Z,2.30
2022-12-28T19:21:37.427Z,3.00
2022-12-28T19:24:07.020Z,2.40
2022-12-28T19:26:35.016Z,2.40
2022-12-28T19:29:03.596Z,2.60
2022-12-28T19:31:31.289Z,2.43
2022-12-28T19:33:58.457Z,2.63
2022-12-28T19:36:25.852Z,2.70
2022-12-28T19:38:56.643Z,2.50
2022-12-28T19:41:23.627Z,3.00
2022-12-28T19:43:50.744Z,2.60
2022-12-28T19:46:21.483Z,2.70
2022-12-28T19:48:49.188Z,2.80
2022-12-28T19:51:16.409Z,2.93
2022-12-28T19:53:43.736Z,2.60
2022-12-28T19:56:13.541Z,3.10
2022-12-28T19:58:40.634Z,3.00
2022-12-28T20:01:11.968Z,2.70
2022-12-28T20:03:39.096Z,2.70
2022-12-28T20:06:24.721Z,2.90
2022-12-28T20:08:53.583Z,2.73
2022-12-28T20:11:21.156Z,2.83
2022-12-28T20:14:03.798Z,2.80
2022-12-28T20:16:32.457Z,2.80
2022-12-28T20:19:01.702Z,3.73
2022-12-28T20:21:28.879Z,2.93
2022-12-28T20:23:55.668Z,3.00
2022-12-28T20:26:24.658Z,2.57
2022-12-28T20:28:51.951Z,2.70
2022-12-28T20:31:18.957Z,3.10
2022-12-28T20:33:46.683Z,2.93
2022-12-28T20:36:19.368Z,2.57
2022-12-28T20:38:48.310Z,2.40
2022-12-28T20:41:36.000Z,2.70
2022-12-28T20:44:05.743Z,2.33
2022-12-28T20:46:33.086Z,2.50
2022-12-28T20:49:00.253Z,2.37
2022-12-28T20:51:27.563Z,2.10
2022-12-28T20:53:54.917Z,2.50
2022-12-28T20:56:22.996Z,2.10
2022-12-28T20:58:50.279Z,2.23
2022-12-28T21:01:18.058Z,1.80
2022-12-28T21:03:46.009Z,2.00
2022-12-28T21:06:12.735Z,1.77
2022-12-28T21:08:39.840Z,1.90
2022-12-28T21:11:06.729Z,1.73
2022-12-28T21:13:34.664Z,1.90
2022-12-28T21:16:04.583Z,1.73
2022-12-28T21:18:32.027Z,1.60
2022-12-28T21:21:00.206Z,1.83
2022-12-28T21:23:28.149Z,1.60
2022-12-28T21:26:06.814Z,1.63
2022-12-28T21:28:34.207Z,1.90
2022-12-28T21:31:03.663Z,1.90
2022-12-28T21:33:30.703Z,1.50
2022-12-28T21:36:17.726Z,2.37
2022-12-28T21:38:45.836Z,1.60
2022-12-28T21:41:38.039Z,1.80
2022-12-28T21:44:06.696Z,1.80
2022-12-28T21:46:33.950Z,1.60
2022-12-28T21:49:00.833Z,1.60
2022-12-28T21:51:37.322Z,1.60
2022-12-28T21:54:11.924Z,1.77
2022-12-28T21:56:39.215Z,1.90
2022-12-28T21:59:06.864Z,2.30
2022-12-28T22:01:52.537Z,3.47
2022-12-28T22:04:39.516Z,2.57
2022-12-28T22:07:08.228Z,2.40
2022-12-28T22:09:54.064Z,1.97
2022-12-28T22:12:39.496Z,2.80
2022-12-28T22:15:34.188Z,1.80
2022-12-28T22:18:03.130Z,2.10
2022-12-28T22:20:30.182Z,2.03
2022-12-28T22:22:58.726Z,1.83
2022-12-28T22:25:26.144Z,1.60
2022-12-28T22:27:52.956Z,1.80
2022-12-28T22:30:20.045Z,1.73
2022-12-28T22:32:47.014Z,1.90
2022-12-28T22:35:14.091Z,1.60
2022-12-28T22:37:42.871Z,1.60
2022-12-28T22:40:10.531Z,1.40
2022-12-28T22:42:42.447Z,1.60
2022-12-28T22:45:14.173Z,1.87
2022-12-28T22:47:43.182Z,1.80
2022-12-28T22:50:12.009Z,1.33
2022-12-28T22:52:38.685Z,1.60
2022-12-28T22:55:05.748Z,1.47
2022-12-28T22:57:32.468Z,1.50
2022-12-28T22:59:59.103Z,1.40
2022-12-28T23:02:25.932Z,1.50
2022-12-28T23:04:52.712Z,1.40
2022-12-28T23:07:19.370Z,1.50
2022-12-28T23:09:45.952Z,1.53
2022-12-28T23:12:12.667Z,1.60
2022-12-28T23:14:57.876Z,1.63
2022-12-28T23:17:26.675Z,1.67
2022-12-28T23:20:11.863Z,1.67
2022-12-28T23:22:57.300Z,1.30
2022-12-28T23:25:43.465Z,1.43
2022-12-28T23:28:15.641Z,1.57
2022-12-28T23:30:46.198Z,1.57
2022-12-28T23:33:12.911Z,1.50
2022-12-28T23:35:39.750Z,1.20
2022-12-28T23:38:06.652Z,1.40
2022-12-28T23:40:33.431Z,1.40
2022-12-28T23:43:00.301Z,1.43
2022-12-28T23:45:27.043Z,1.60
2022-12-28T23:47:53.890Z,1.40
2022-12-28T23:50:20.652Z,1.40
2022-12-28T23:52:47.329Z,1.40
2022-12-28T23:55:14.240Z,1.50
2022-12-28T23:57:41.208Z,1.27
